createdAt,value
2022-11-24T00:04:39.712Z,97414.13
2022-11-24T00:10:06.672Z,97421.94
2022-11-24T00:15:31.639Z,97422.94
2022-11-24T00:20:55.684Z,97417.75
2022-11-24T00:26:24.767Z,97421.38
2022-11-24T00:31:50.654Z,97423.59
2022-11-24T00:37:15.646Z,97418.53
2022-11-24T00:42:43.648Z,97424.97
2022-11-24T00:48:08.667Z,97431.13
2022-11-24T00:53:32.711Z,97441.88
2022-11-24T00:59:00.632Z,97457.72
2022-11-24T01:04:24.682Z,97455.72
2022-11-24T01:09:52.650Z,97464.16
2022-11-24T01:15:21.731Z,97469.22
2022-11-24T01:20:46.751Z,97484.63
2022-11-24T01:26:10.726Z,97485.91
2022-11-24T01:31:39.657Z,97488.16
2022-11-24T01:37:03.660Z,97499.25
2022-11-24T01:42:28.767Z,97511.19
2022-11-24T01:47:56.669Z,97513.59
2022-11-24T01:53:23.693Z,97514.75
2022-11-24T01:58:49.651Z,97524.84
2022-11-24T02:04:21.685Z,97525.72
2022-11-24T02:09:58.735Z,97536.66
2022-11-24T02:15:24.671Z,97541.72
2022-11-24T02:20:51.696Z,97541.31
2022-11-24T02:26:23.741Z,97545.66
2022-11-24T02:31:50.777Z,97550.00
2022-11-24T02:37:16.739Z,97554.38
2022-11-24T02:42:43.676Z,97566.69
2022-11-24T02:48:11.702Z,97571.88
2022-11-24T02:53:35.731Z,97572.72
2022-11-24T02:59:00.786Z,97577.19
2022-11-24T03:04:28.771Z,97586.28
2022-11-24T03:09:53.717Z,97581.81
2022-11-24T03:15:18.715Z,97587.00
2022-11-24T03:20:46.715Z,97591.34
2022-11-24T03:26:10.704Z,97596.38
2022-11-24T03:31:35.780Z,97605.09
2022-11-24T03:37:02.726Z,97606.50
2022-11-24T03:42:27.719Z,97603.69
2022-11-24T03:47:51.726Z,97628.22
2022-11-24T03:53:19.790Z,97642.25
2022-11-24T03:58:44.715Z,97637.63
2022-11-24T04:04:15.747Z,97645.47
2022-11-24T04:09:49.732Z,97656.00
2022-11-24T04:15:15.715Z,97661.19
2022-11-24T04:20:42.768Z,97677.03
2022-11-24T04:26:10.723Z,97671.59
2022-11-24T04:31:34.797Z,97691.03
2022-11-24T04:36:59.755Z,97692.47
2022-11-24T04:42:26.758Z,97684.50
2022-11-24T04:47:51.732Z,97691.50
2022-11-24T04:53:17.006Z,97702.16
2022-11-24T04:58:45.824Z,97718.84
2022-11-24T05:04:10.786Z,97724.84
2022-11-24T05:10:01.746Z,97728.94
2022-11-24T05:15:29.775Z,97727.81
2022-11-24T05:20:53.757Z,97727.44
2022-11-24T05:26:18.718Z,97737.81
2022-11-24T05:31:45.769Z,97749.19
2022-11-24T05:37:11.727Z,97756.06
2022-11-24T05:42:48.826Z,97756.78
2022-11-24T05:48:17.773Z,97754.81
2022-11-24T05:53:42.760Z,97759.88
2022-11-24T05:59:10.046Z,97778.41
2022-11-24T06:04:37.093Z,97778.25
2022-11-24T06:10:07.734Z,97775.47
2022-11-24T06:15:32.930Z,97783.47
2022-11-24T06:21:10.285Z,97786.13
2022-11-24T06:26:36.060Z,97789.63
2022-11-24T06:31:59.828Z,97802.13
2022-11-24T06:37:27.754Z,97800.16
2022-11-24T06:42:52.756Z,97808.84
2022-11-24T06:48:17.819Z,97808.72
2022-11-24T06:53:46.778Z,97812.94
2022-11-24T06:59:11.804Z,97817.84
2022-11-24T07:04:36.006Z,97818.44
2022-11-24T07:10:09.784Z,97820.97
2022-11-24T07:15:34.797Z,97826.16
2022-11-24T07:20:59.801Z,97839.22
2022-11-24T07:26:27.780Z,97840.78
2022-11-24T07:31:52.845Z,97846.00
2022-11-24T07:37:17.780Z,97857.94
2022-11-24T07:42:44.798Z,97857.66
2022-11-24T07:48:09.795Z,97862.56
2022-11-24T07:53:33.908Z,97877.06
2022-11-24T07:59:01.780Z,97886.47
2022-11-24T08:04:25.808Z,97883.28
2022-11-24T08:09:56.777Z,97887.38
2022-11-24T08:15:25.008Z,97888.50
2022-11-24T08:20:49.896Z,97889.53
2022-11-24T08:26:17.827Z,97888.53
2022-11-24T08:31:44.880Z,97903.72
2022-11-24T08:37:09.801Z,97904.63
2022-11-24T08:42:33.805Z,97897.47
2022-11-24T08:48:04.860Z,97900.97
2022-11-24T08:53:28.838Z,97900.13
2022-11-24T08:58:53.890Z,97911.66
2022-11-24T09:04:20.912Z,97909.84
2022-11-24T09:09:51.838Z,97911.38
2022-11-24T09:15:17.848Z,97917.44
2022-11-24T09:20:44.810Z,97921.75
2022-11-24T09:26:13.838Z,97927.09
2022-11-24T09:31:40.854Z,97919.75
2022-11-24T09:37:08.857Z,97926.81
2022-11-24T09:42:46.030Z,97918.88
2022-11-24T09:48:21.845Z,97916.19
2022-11-24T09:53:53.826Z,97902.22
2022-11-24T09:59:25.841Z,97908.69
2022-11-24T10:04:56.872Z,97899.75
2022-11-24T10:10:33.871Z,97898.72
2022-11-24T10:16:07.959Z,97900.88
2022-11-24T10:21:56.893Z,97901.47
2022-11-24T10:27:27.853Z,97890.28
2022-11-24T10:32:57.684Z,97889.91
2022-11-24T10:38:41.859Z,97880.66
2022-11-24T10:44:08.850Z,97884.81
2022-11-24T10:49:37.227Z,97882.06
2022-11-24T10:55:13.875Z,97879.59
2022-11-24T11:00:43.893Z,97883.19
2022-11-24T11:06:10.901Z,97884.09
2022-11-24T11:11:38.890Z,97886.00
2022-11-24T11:17:11.898Z,97883.38
2022-11-24T11:22:38.968Z,97895.31
2022-11-24T11:28:08.610Z,97897.69
2022-11-24T11:39:36.937Z,97889.34
2022-11-24T11:45:06.896Z,97901.81
2022-11-24T11:51:06.569Z,97901.34
2022-11-24T11:56:34.891Z,97905.53
2022-11-24T12:02:27.009Z,97904.91
2022-11-24T12:08:10.069Z,97905.22
2022-11-24T12:13:58.921Z,97905.13
2022-11-24T12:19:37.094Z,97907.63
2022-11-24T12:25:11.952Z,97917.19
2022-11-24T12:30:46.970Z,97916.59
2022-11-24T12:36:17.915Z,97919.09
2022-11-24T12:42:03.900Z,97924.16
2022-11-24T12:47:33.927Z,97922.19
2022-11-24T12:53:06.921Z,97923.41
2022-11-24T12:58:46.016Z,97917.97
2022-11-24T13:04:23.088Z,97906.22
2022-11-24T13:09:46.952Z,97905.38
2022-11-24T13:15:45.277Z,97917.78
2022-11-24T13:21:10.947Z,97925.72
2022-11-24T13:26:41.707Z,97925.72
2022-11-24T13:32:08.968Z,97936.81
2022-11-24T13:37:57.957Z,97933.91
2022-11-24T13:43:29.950Z,97937.03
2022-11-24T13:49:17.060Z,97944.88
2022-11-24T13:54:42.967Z,97956.78
2022-11-24T14:00:06.969Z,97956.25
2022-11-24T14:05:46.942Z,97955.97
2022-11-24T14:11:27.968Z,97969.03
2022-11-24T14:16:52.980Z,97968.88
2022-11-24T14:22:19.988Z,97980.94
2022-11-24T14:27:46.972Z,97984.53
2022-11-24T14:33:13.989Z,97990.00
2022-11-24T14:38:48.043Z,97993.47
2022-11-24T14:44:15.965Z,97999.66
2022-11-24T14:49:40.099Z,97992.06
2022-11-24T14:55:22.543Z,97996.06
2022-11-24T15:00:50.048Z,98018.97
2022-11-24T15:06:24.998Z,98027.09
2022-11-24T15:11:52.018Z,98041.78
2022-11-24T15:17:17.114Z,98049.88
2022-11-24T15:22:51.986Z,98054.16
2022-11-24T15:28:21.013Z,98077.91
2022-11-24T15:33:46.029Z,98073.13
2022-11-24T15:39:11.013Z,98080.78
2022-11-24T15:44:39.108Z,98083.06
2022-11-24T15:50:04.026Z,98082.81
2022-11-24T15:55:33.049Z,98079.97
2022-11-24T16:01:01.057Z,98086.31
2022-11-24T16:06:29.059Z,98102.25
2022-11-24T16:11:54.017Z,98109.59
2022-11-24T16:17:21.032Z,98113.41
2022-11-24T16:22:46.040Z,98107.78
2022-11-24T16:28:10.043Z,98128.25
2022-11-24T16:33:38.047Z,98127.28
2022-11-24T16:39:02.034Z,98138.59
2022-11-24T16:44:27.049Z,98137.59
2022-11-24T16:49:54.046Z,98145.38
2022-11-24T16:55:21.077Z,98142.13
2022-11-24T17:00:45.230Z,98137.06
2022-11-24T17:06:14.157Z,98142.69
2022-11-24T17:11:41.209Z,98149.19
2022-11-24T17:17:06.077Z,98160.75
2022-11-24T17:22:33.079Z,98164.41
2022-11-24T17:27:58.037Z,98169.75
2022-11-24T17:33:24.073Z,98179.34
2022-11-24T17:38:52.113Z,98180.88
2022-11-24T17:44:17.123Z,98171.16
2022-11-24T17:49:42.101Z,98175.66
2022-11-24T17:55:09.045Z,98190.59
2022-11-24T18:00:34.109Z,98196.94
2022-11-24T18:05:59.127Z,98192.88
2022-11-24T18:11:34.074Z,98198.91
2022-11-24T18:16:59.175Z,98201.88
2022-11-24T18:22:49.932Z,98212.59
2022-11-24T18:28:13.157Z,98213.56
2022-11-24T18:33:37.147Z,98220.72
2022-11-24T18:39:02.111Z,98219.19
2022-11-24T18:44:29.084Z,98222.13
2022-11-24T18:49:54.246Z,98226.66
2022-11-24T18:55:18.173Z,98220.59
2022-11-24T19:00:46.110Z,98225.53
2022-11-24T19:06:10.374Z,98226.38
2022-11-24T19:11:44.108Z,98230.72
2022-11-24T19:17:14.120Z,98233.41
2022-11-24T19:22:38.153Z,98237.22
2022-11-24T19:28:03.161Z,98240.16
2022-11-24T19:33:31.092Z,98244.94
2022-11-24T19:39:00.220Z,98243.50
2022-11-24T19:44:26.137Z,98257.00
2022-11-24T19:49:54.124Z,98267.81
2022-11-24T19:55:18.144Z,98269.03
2022-11-24T20:00:43.119Z,98281.44
2022-11-24T20:06:14.134Z,98290.44
2022-11-24T20:11:45.154Z,98290.44
2022-11-24T20:17:11.307Z,98289.75
2022-11-24T20:22:38.267Z,98289.28
2022-11-24T20:28:03.138Z,98288.56
2022-11-24T20:33:27.174Z,98294.19
2022-11-24T20:38:55.168Z,98302.34
2022-11-24T20:44:22.338Z,98301.38
2022-11-24T20:49:47.162Z,98299.94
2022-11-24T20:55:14.220Z,98292.06
2022-11-24T21:00:39.192Z,98296.53
2022-11-24T21:06:10.173Z,98302.91
2022-11-24T21:11:44.165Z,98303.00
2022-11-24T21:17:09.336Z,98304.97
2022-11-24T21:22:33.150Z,98307.78
2022-11-24T21:28:01.187Z,98308.03
2022-11-24T21:33:26.171Z,98310.72
2022-11-24T21:38:52.246Z,98312.41
2022-11-24T21:44:20.219Z,98315.94
2022-11-24T21:49:45.158Z,98310.84
2022-11-24T21:55:10.268Z,98315.22
2022-11-24T22:00:38.199Z,98321.53
2022-11-24T22:06:08.193Z,98319.84
2022-11-24T22:11:41.237Z,98323.25
2022-11-24T22:17:09.214Z,98326.88
2022-11-24T22:22:33.182Z,98330.53
2022-11-24T22:27:58.193Z,98348.28
2022-11-24T22:33:26.412Z,98346.31
2022-11-24T22:38:52.216Z,98340.84
2022-11-24T22:44:16.324Z,98339.84
2022-11-24T22:49:44.229Z,98346.03
2022-11-24T22:55:08.212Z,98351.38
2022-11-24T23:00:33.336Z,98355.06
2022-11-24T23:06:00.212Z,98344.63
2022-11-24T23:11:37.768Z,98352.91
2022-11-24T23:17:03.208Z,98359.38
2022-11-24T23:22:31.242Z,98358.50
2022-11-24T23:27:56.252Z,98354.13
2022-11-24T23:33:20.230Z,98351.28
2022-11-24T23:38:48.231Z,98343.91
2022-11-24T23:44:12.330Z,98347.94
2022-11-24T23:49:39.223Z,98351.16
2022-11-24T23:55:07.249Z,98342.91
